sensor_id;sensor_type;location;lat;lon;timestamp;P1;durP1;ratioP1;P2;durP2;ratioP2
72924;SDS011;61070;50.794;7.054;2024-01-15T00:00:21;39.72;;;15.30;;
72924;SDS011;61070;50.794;7.054;2024-01-15T00:01:21;35.30;;;13.85;;
72924;SDS011;61070;50.794;7.054;2024-01-15T00:02:22;39.80;;;15.02;;
72924;SDS011;61070;50.794;7.054;2024-01-15T00:03:22;36.17;;;14.65;;
72924;SDS011;61070;50.794;7.054;2024-01-15T00:04:22;41.58;;;16.25;;
72924;SDS011;61070;50.794;7.054;2024-01-15T00:05:23;37.42;;;14.90;;
72924;SDS011;61070;50.794;7.054;2024-01-15T00:06:23;36.95;;;15.05;;
72924;SDS011;61070;50.794;7.054;2024-01-15T00:07:23;34.60;;;14.18;;
72924;SDS011;61070;50.794;7.054;2024-01-15T00:08:24;33.03;;;13.55;;
72924;SDS011;61070;50.794;7.054;2024-01-15T00:09:24;29.75;;;14.23;;
72924;SDS011;61070;50.794;7.054;2024-01-15T00:10:24;32.20;;;14.25;;
72924;SDS011;61070;50.794;7.054;2024-01-15T00:11:25;34.13;;;13.85;;
72924;SDS011;61070;50.794;7.054;2024-01-15T00:12:25;37.47;;;15.43;;
72924;SDS011;61070;50.794;7.054;2024-01-15T00:13:25;35.58;;;14.65;;
72924;SDS011;61070;50.794;7.054;2024-01-15T00:14:26;36.65;;;14.43;;
72924;SDS011;61070;50.794;7.054;2024-01-15T00:15:26;33.03;;;12.73;;
72924;SDS011;61070;50.794;7.054;2024-01-15T00:16:28;35.08;;;13.65;;
72924;SDS011;61070;50.794;7.054;2024-01-15T00:17:28;34.10;;;15.30;;
72924;SDS011;61070;50.794;7.054;2024-01-15T00:18:29;41.90;;;14.90;;
72924;SDS011;61070;50.794;7.054;2024-01-15T00:19:29;37.75;;;13.25;;
72924;SDS011;61070;50.794;7.054;2024-01-15T00:20:32;36.90;;;14.07;;
72924;SDS011;61070;50.794;7.054;2024-01-15T00:21:32;35.10;;;13.25;;
72924;SDS011;61070;50.794;7.054;2024-01-15T00:22:32;40.42;;;14.13;;
72924;SDS011;61070;50.794;7.054;2024-01-15T00:23:33;30.48;;;14.30;;
72924;SDS011;61070;50.794;7.054;2024-01-15T00:24:33;33.28;;;13.63;;
72924;SDS011;61070;50.794;7.054;2024-01-15T00:25:33;37.13;;;14.57;;
72924;SDS011;61070;50.794;7.054;2024-01-15T00:26:33;39.00;;;15.73;;
72924;SDS011;61070;50.794;7.054;2024-01-15T00:27:34;34.35;;;13.38;;
72924;SDS011;61070;50.794;7.054;2024-01-15T00:28:34;41.25;;;13.98;;
72924;SDS011;61070;50.794;7.054;2024-01-15T00:29:36;44.20;;;15.73;;
72924;SDS011;61070;50.794;7.054;2024-01-15T00:30:36;34.08;;;14.02;;
72924;SDS011;61070;50.794;7.054;2024-01-15T00:31:36;38.85;;;14.38;;
72924;SDS011;61070;50.794;7.054;2024-01-15T00:32:37;40.20;;;14.52;;
72924;SDS011;61070;50.794;7.054;2024-01-15T00:33:37;37.30;;;13.43;;
72924;SDS011;61070;50.794;7.054;2024-01-15T00:34:37;39.05;;;13.88;;
72924;SDS011;61070;50.794;7.054;2024-01-15T00:35:37;36.10;;;14.43;;
72924;SDS011;61070;50.794;7.054;2024-01-15T00:36:38;40.70;;;15.48;;
72924;SDS011;61070;50.794;7.054;2024-01-15T00:37:38;36.78;;;15.25;;
72924;SDS011;61070;50.794;7.054;2024-01-15T00:38:39;35.88;;;15.23;;
72924;SDS011;61070;50.794;7.054;2024-01-15T00:39:39;34.30;;;13.40;;
72924;SDS011;61070;50.794;7.054;2024-01-15T00:40:40;39.92;;;14.85;;
72924;SDS011;61070;50.794;7.054;2024-01-15T00:41:40;35.88;;;15.32;;
72924;SDS011;61070;50.794;7.054;2024-01-15T00:42:40;37.83;;;13.88;;
72924;SDS011;61070;50.794;7.054;2024-01-15T00:43:40;37.10;;;14.27;;
72924;SDS011;61070;50.794;7.054;2024-01-15T00:44:41;37.38;;;14.15;;
72924;SDS011;61070;50.794;7.054;2024-01-15T00:45:42;41.88;;;17.17;;
72924;SDS011;61070;50.794;7.054;2024-01-15T00:46:43;35.65;;;14.25;;
72924;SDS011;61070;50.794;7.054;2024-01-15T00:47:45;38.97;;;14.90;;
72924;SDS011;61070;50.794;7.054;2024-01-15T00:48:45;40.53;;;15.48;;
72924;SDS011;61070;50.794;7.054;2024-01-15T00:49:46;38.05;;;14.68;;
72924;SDS011;61070;50.794;7.054;2024-01-15T00:50:47;32.70;;;14.85;;
72924;SDS011;61070;50.794;7.054;2024-01-15T00:51:47;40.92;;;15.27;;
72924;SDS011;61070;50.794;7.054;2024-01-15T00:52:47;37.45;;;14.57;;
72924;SDS011;61070;50.794;7.054;2024-01-15T00:53:48;36.47;;;14.63;;
72924;SDS011;61070;50.794;7.054;2024-01-15T00:54:48;38.03;;;16.15;;
72924;SDS011;61070;50.794;7.054;2024-01-15T00:55:48;32.10;;;14.52;;
72924;SDS011;61070;50.794;7.054;2024-01-15T00:56:49;41.78;;;15.43;;
72924;SDS011;61070;50.794;7.054;2024-01-15T00:57:49;42.17;;;16.42;;
72924;SDS011;61070;50.794;7.054;2024-01-15T00:58:49;38.08;;;14.63;;
72924;SDS011;61070;50.794;7.054;2024-01-15T00:59:50;37.67;;;14.88;;
72924;SDS011;61070;50.794;7.054;2024-01-15T01:00:50;48.00;;;15.20;;
72924;SDS011;61070;50.794;7.054;2024-01-15T01:01:50;32.55;;;14.75;;
72924;SDS011;61070;50.794;7.054;2024-01-15T01:02:51;41.42;;;15.38;;
72924;SDS011;61070;50.794;7.054;2024-01-15T01:03:51;38.38;;;15.02;;
72924;SDS011;61070;50.794;7.054;2024-01-15T01:04:51;43.13;;;16.23;;
72924;SDS011;61070;50.794;7.054;2024-01-15T01:05:52;39.05;;;16.05;;
72924;SDS011;61070;50.794;7.054;2024-01-15T01:06:52;40.58;;;15.90;;
72924;SDS011;61070;50.794;7.054;2024-01-15T01:07:52;38.85;;;14.07;;
72924;SDS011;61070;50.794;7.054;2024-01-15T01:08:52;38.25;;;15.55;;
72924;SDS011;61070;50.794;7.054;2024-01-15T01:09:53;39.45;;;15.02;;
72924;SDS011;61070;50.794;7.054;2024-01-15T01:10:53;41.45;;;15.48;;
72924;SDS011;61070;50.794;7.054;2024-01-15T01:11:56;43.30;;;15.20;;
72924;SDS011;61070;50.794;7.054;2024-01-15T01:12:56;33.33;;;14.80;;
72924;SDS011;61070;50.794;7.054;2024-01-15T01:13:56;40.60;;;16.45;;
72924;SDS011;61070;50.794;7.054;2024-01-15T01:14:57;36.20;;;14.60;;
72924;SDS011;61070;50.794;7.054;2024-01-15T01:15:58;40.35;;;14.80;;
72924;SDS011;61070;50.794;7.054;2024-01-15T01:16:59;33.42;;;13.75;;
72924;SDS011;61070;50.794;7.054;2024-01-15T01:17:59;33.83;;;14.50;;
72924;SDS011;61070;50.794;7.054;2024-01-15T01:18:59;33.42;;;14.65;;
72924;SDS011;61070;50.794;7.054;2024-01-15T01:19:59;47.20;;;15.00;;
72924;SDS011;61070;50.794;7.054;2024-01-15T01:21:00;30.75;;;14.38;;
72924;SDS011;61070;50.794;7.054;2024-01-15T01:22:00;38.33;;;14.77;;
72924;SDS011;61070;50.794;7.054;2024-01-15T01:23:01;35.72;;;14.48;;
72924;SDS011;61070;50.794;7.054;2024-01-15T01:24:01;37.33;;;14.75;;
72924;SDS011;61070;50.794;7.054;2024-01-15T01:25:01;35.78;;;14.65;;
72924;SDS011;61070;50.794;7.054;2024-01-15T01:26:02;39.33;;;15.73;;
72924;SDS011;61070;50.794;7.054;2024-01-15T01:27:02;39.53;;;15.88;;
72924;SDS011;61070;50.794;7.054;2024-01-15T01:28:03;36.20;;;14.27;;
72924;SDS011;61070;50.794;7.054;2024-01-15T01:29:03;37.95;;;15.65;;
72924;SDS011;61070;50.794;7.054;2024-01-15T01:30:04;44.65;;;15.98;;
72924;SDS011;61070;50.794;7.054;2024-01-15T01:31:05;40.17;;;16.60;;
72924;SDS011;61070;50.794;7.054;2024-01-15T01:32:05;35.97;;;14.80;;
72924;SDS011;61070;50.794;7.054;2024-01-15T01:33:05;41.35;;;15.85;;
72924;SDS011;61070;50.794;7.054;2024-01-15T01:34:06;42.63;;;16.83;;
72924;SDS011;61070;50.794;7.054;2024-01-15T01:35:06;39.75;;;15.48;;
72924;SDS011;61070;50.794;7.054;2024-01-15T01:36:07;39.47;;;15.90;;
72924;SDS011;61070;50.794;7.054;2024-01-15T01:37:10;39.22;;;16.73;;
72924;SDS011;61070;50.794;7.054;2024-01-15T01:38:14;42.67;;;16.42;;
72924;SDS011;61070;50.794;7.054;2024-01-15T01:39:14;41.20;;;15.95;;
72924;SDS011;61070;50.794;7.054;2024-01-15T01:40:14;40.75;;;18.10;;
72924;SDS011;61070;50.794;7.054;2024-01-15T01:41:15;40.20;;;16.25;;
72924;SDS011;61070;50.794;7.054;2024-01-15T01:42:15;36.45;;;15.80;;
72924;SDS011;61070;50.794;7.054;2024-01-15T01:43:16;36.65;;;16.20;;
72924;SDS011;61070;50.794;7.054;2024-01-15T01:44:16;44.83;;;16.85;;
72924;SDS011;61070;50.794;7.054;2024-01-15T01:45:16;46.22;;;16.38;;
72924;SDS011;61070;50.794;7.054;2024-01-15T01:46:16;38.35;;;16.92;;
72924;SDS011;61070;50.794;7.054;2024-01-15T01:47:17;44.60;;;17.77;;
72924;SDS011;61070;50.794;7.054;2024-01-15T01:48:18;38.55;;;16.38;;
72924;SDS011;61070;50.794;7.054;2024-01-15T01:49:18;41.25;;;17.92;;
72924;SDS011;61070;50.794;7.054;2024-01-15T01:50:19;46.47;;;16.70;;
72924;SDS011;61070;50.794;7.054;2024-01-15T01:51:20;45.95;;;17.98;;
72924;SDS011;61070;50.794;7.054;2024-01-15T01:52:22;47.83;;;17.95;;
72924;SDS011;61070;50.794;7.054;2024-01-15T01:53:24;43.85;;;17.92;;
72924;SDS011;61070;50.794;7.054;2024-01-15T01:54:26;38.35;;;17.13;;
72924;SDS011;61070;50.794;7.054;2024-01-15T01:55:31;49.60;;;17.85;;
72924;SDS011;61070;50.794;7.054;2024-01-15T01:56:33;41.72;;;16.30;;
72924;SDS011;61070;50.794;7.054;2024-01-15T01:57:34;42.88;;;17.45;;
72924;SDS011;61070;50.794;7.054;2024-01-15T01:58:35;49.55;;;16.95;;
72924;SDS011;61070;50.794;7.054;2024-01-15T01:59:35;42.42;;;16.77;;
72924;SDS011;61070;50.794;7.054;2024-01-15T02:00:36;40.92;;;17.73;;
72924;SDS011;61070;50.794;7.054;2024-01-15T02:01:36;49.17;;;18.00;;
72924;SDS011;61070;50.794;7.054;2024-01-15T02:02:37;41.15;;;16.75;;
72924;SDS011;61070;50.794;7.054;2024-01-15T02:03:37;47.35;;;17.52;;
72924;SDS011;61070;50.794;7.054;2024-01-15T02:04:39;50.95;;;18.52;;
72924;SDS011;61070;50.794;7.054;2024-01-15T02:05:40;41.63;;;16.63;;
72924;SDS011;61070;50.794;7.054;2024-01-15T02:06:40;41.42;;;16.60;;
72924;SDS011;61070;50.794;7.054;2024-01-15T02:07:41;38.45;;;15.43;;
72924;SDS011;61070;50.794;7.054;2024-01-15T02:08:42;43.38;;;16.98;;
72924;SDS011;61070;50.794;7.054;2024-01-15T02:09:46;45.22;;;17.65;;
72924;SDS011;61070;50.794;7.054;2024-01-15T02:10:46;48.58;;;17.42;;
72924;SDS011;61070;50.794;7.054;2024-01-15T02:11:46;45.10;;;17.25;;
72924;SDS011;61070;50.794;7.054;2024-01-15T02:12:47;44.67;;;18.23;;
72924;SDS011;61070;50.794;7.054;2024-01-15T02:13:48;41.83;;;17.88;;
72924;SDS011;61070;50.794;7.054;2024-01-15T02:14:48;41.30;;;17.27;;
72924;SDS011;61070;50.794;7.054;2024-01-15T02:15:49;44.08;;;18.52;;
72924;SDS011;61070;50.794;7.054;2024-01-15T02:16:49;47.95;;;17.30;;
72924;SDS011;61070;50.794;7.054;2024-01-15T02:17:59;49.25;;;18.13;;
72924;SDS011;61070;50.794;7.054;2024-01-15T02:19:01;40.20;;;16.45;;
72924;SDS011;61070;50.794;7.054;2024-01-15T02:20:01;49.92;;;17.25;;
72924;SDS011;61070;50.794;7.054;2024-01-15T02:21:02;46.22;;;18.05;;
72924;SDS011;61070;50.794;7.054;2024-01-15T02:22:02;37.53;;;17.25;;
72924;SDS011;61070;50.794;7.054;2024-01-15T02:23:15;53.88;;;20.77;;
72924;SDS011;61070;50.794;7.054;2024-01-15T02:24:15;49.08;;;17.88;;
72924;SDS011;61070;50.794;7.054;2024-01-15T02:25:16;51.00;;;17.23;;
72924;SDS011;61070;50.794;7.054;2024-01-15T02:26:16;50.35;;;17.08;;
72924;SDS011;61070;50.794;7.054;2024-01-15T02:27:17;46.97;;;17.98;;
72924;SDS011;61070;50.794;7.054;2024-01-15T02:28:19;43.05;;;17.05;;
72924;SDS011;61070;50.794;7.054;2024-01-15T02:29:19;45.88;;;18.77;;
72924;SDS011;61070;50.794;7.054;2024-01-15T02:30:20;44.50;;;18.63;;
72924;SDS011;61070;50.794;7.054;2024-01-15T02:31:21;44.42;;;18.20;;
72924;SDS011;61070;50.794;7.054;2024-01-15T02:32:21;50.25;;;17.05;;
72924;SDS011;61070;50.794;7.054;2024-01-15T02:33:22;49.00;;;17.27;;
72924;SDS011;61070;50.794;7.054;2024-01-15T02:34:22;48.25;;;19.10;;
72924;SDS011;61070;50.794;7.054;2024-01-15T02:35:22;42.90;;;17.60;;
72924;SDS011;61070;50.794;7.054;2024-01-15T02:36:22;47.78;;;17.15;;
72924;SDS011;61070;50.794;7.054;2024-01-15T02:37:23;49.00;;;18.10;;
72924;SDS011;61070;50.794;7.054;2024-01-15T02:38:23;48.70;;;18.25;;
72924;SDS011;61070;50.794;7.054;2024-01-15T02:39:23;43.83;;;17.23;;
72924;SDS011;61070;50.794;7.054;2024-01-15T02:40:24;41.88;;;16.70;;
72924;SDS011;61070;50.794;7.054;2024-01-15T02:41:24;45.25;;;18.35;;
72924;SDS011;61070;50.794;7.054;2024-01-15T02:42:26;41.50;;;17.40;;
72924;SDS011;61070;50.794;7.054;2024-01-15T02:43:26;46.25;;;17.52;;
72924;SDS011;61070;50.794;7.054;2024-01-15T02:44:26;43.97;;;17.15;;
72924;SDS011;61070;50.794;7.054;2024-01-15T02:45:27;40.50;;;16.83;;
72924;SDS011;61070;50.794;7.054;2024-01-15T02:46:27;43.28;;;18.02;;
72924;SDS011;61070;50.794;7.054;2024-01-15T02:47:27;52.78;;;19.63;;
72924;SDS011;61070;50.794;7.054;2024-01-15T02:48:27;45.28;;;18.58;;
72924;SDS011;61070;50.794;7.054;2024-01-15T02:49:28;41.45;;;17.95;;
72924;SDS011;61070;50.794;7.054;2024-01-15T02:50:28;45.83;;;17.23;;
72924;SDS011;61070;50.794;7.054;2024-01-15T02:51:28;46.38;;;16.73;;
72924;SDS011;61070;50.794;7.054;2024-01-15T02:52:28;48.03;;;18.88;;
72924;SDS011;61070;50.794;7.054;2024-01-15T02:53:29;41.75;;;16.98;;
72924;SDS011;61070;50.794;7.054;2024-01-15T02:54:29;43.03;;;17.55;;
72924;SDS011;61070;50.794;7.054;2024-01-15T02:55:29;42.72;;;17.55;;
72924;SDS011;61070;50.794;7.054;2024-01-15T02:56:30;40.03;;;17.50;;
72924;SDS011;61070;50.794;7.054;2024-01-15T02:57:30;46.47;;;18.52;;
72924;SDS011;61070;50.794;7.054;2024-01-15T02:58:30;37.75;;;16.60;;
72924;SDS011;61070;50.794;7.054;2024-01-15T02:59:32;47.85;;;17.83;;
72924;SDS011;61070;50.794;7.054;2024-01-15T03:00:32;39.67;;;17.25;;
72924;SDS011;61070;50.794;7.054;2024-01-15T03:01:32;40.75;;;17.20;;
72924;SDS011;61070;50.794;7.054;2024-01-15T03:02:35;44.60;;;18.73;;
72924;SDS011;61070;50.794;7.054;2024-01-15T03:03:37;45.20;;;19.05;;
72924;SDS011;61070;50.794;7.054;2024-01-15T03:04:37;41.85;;;17.02;;
72924;SDS011;61070;50.794;7.054;2024-01-15T03:05:37;46.13;;;17.90;;
72924;SDS011;61070;50.794;7.054;2024-01-15T03:06:38;45.05;;;18.08;;
72924;SDS011;61070;50.794;7.054;2024-01-15T03:07:38;37.38;;;17.15;;
72924;SDS011;61070;50.794;7.054;2024-01-15T03:08:38;39.13;;;16.20;;
72924;SDS011;61070;50.794;7.054;2024-01-15T03:09:39;48.20;;;18.27;;
72924;SDS011;61070;50.794;7.054;2024-01-15T03:10:39;40.15;;;16.02;;
72924;SDS011;61070;50.794;7.054;2024-01-15T03:11:39;41.13;;;17.40;;
72924;SDS011;61070;50.794;7.054;2024-01-15T03:12:39;41.45;;;16.17;;
72924;SDS011;61070;50.794;7.054;2024-01-15T03:13:40;39.28;;;17.52;;
72924;SDS011;61070;50.794;7.054;2024-01-15T03:14:40;44.50;;;16.45;;
72924;SDS011;61070;50.794;7.054;2024-01-15T03:15:42;36.78;;;16.95;;
72924;SDS011;61070;50.794;7.054;2024-01-15T03:16:43;44.38;;;16.50;;
72924;SDS011;61070;50.794;7.054;2024-01-15T03:17:43;39.47;;;15.10;;
72924;SDS011;61070;50.794;7.054;2024-01-15T03:18:43;42.53;;;18.35;;
72924;SDS011;61070;50.794;7.054;2024-01-15T03:19:44;37.45;;;16.25;;
72924;SDS011;61070;50.794;7.054;2024-01-15T03:20:44;35.25;;;15.40;;
72924;SDS011;61070;50.794;7.054;2024-01-15T03:21:44;41.38;;;15.82;;
72924;SDS011;61070;50.794;7.054;2024-01-15T03:22:45;39.65;;;16.02;;
72924;SDS011;61070;50.794;7.054;2024-01-15T03:23:45;40.42;;;17.67;;
72924;SDS011;61070;50.794;7.054;2024-01-15T03:24:45;38.38;;;16.77;;
72924;SDS011;61070;50.794;7.054;2024-01-15T03:25:45;39.58;;;14.90;;
72924;SDS011;61070;50.794;7.054;2024-01-15T03:26:46;39.38;;;15.88;;
72924;SDS011;61070;50.794;7.054;2024-01-15T03:27:46;38.58;;;15.30;;
72924;SDS011;61070;50.794;7.054;2024-01-15T03:28:46;32.03;;;15.10;;
72924;SDS011;61070;50.794;7.054;2024-01-15T03:29:46;29.63;;;14.70;;
72924;SDS011;61070;50.794;7.054;2024-01-15T03:30:47;34.28;;;14.95;;
72924;SDS011;61070;50.794;7.054;2024-01-15T03:31:47;39.58;;;15.15;;
72924;SDS011;61070;50.794;7.054;2024-01-15T03:32:47;32.10;;;14.63;;
72924;SDS011;61070;50.794;7.054;2024-01-15T03:33:49;34.40;;;15.00;;
72924;SDS011;61070;50.794;7.054;2024-01-15T03:34:50;37.95;;;15.57;;
72924;SDS011;61070;50.794;7.054;2024-01-15T03:35:52;37.13;;;14.95;;
72924;SDS011;61070;50.794;7.054;2024-01-15T03:36:52;37.60;;;14.63;;
72924;SDS011;61070;50.794;7.054;2024-01-15T03:37:52;40.78;;;15.73;;
72924;SDS011;61070;50.794;7.054;2024-01-15T03:38:53;38.40;;;14.90;;
72924;SDS011;61070;50.794;7.054;2024-01-15T03:39:53;36.15;;;14.73;;
72924;SDS011;61070;50.794;7.054;2024-01-15T03:40:53;32.72;;;13.88;;
72924;SDS011;61070;50.794;7.054;2024-01-15T03:41:53;32.65;;;14.40;;
72924;SDS011;61070;50.794;7.054;2024-01-15T03:42:54;29.33;;;14.82;;
72924;SDS011;61070;50.794;7.054;2024-01-15T03:43:55;30.15;;;13.95;;
72924;SDS011;61070;50.794;7.054;2024-01-15T03:44:55;36.00;;;15.27;;
72924;SDS011;61070;50.794;7.054;2024-01-15T03:45:56;32.90;;;14.60;;
72924;SDS011;61070;50.794;7.054;2024-01-15T03:46:56;32.17;;;14.45;;
72924;SDS011;61070;50.794;7.054;2024-01-15T03:47:58;33.45;;;14.63;;
72924;SDS011;61070;50.794;7.054;2024-01-15T03:48:58;37.47;;;13.10;;
72924;SDS011;61070;50.794;7.054;2024-01-15T03:49:58;34.30;;;15.23;;
72924;SDS011;61070;50.794;7.054;2024-01-15T03:50:58;31.30;;;15.23;;
72924;SDS011;61070;50.794;7.054;2024-01-15T03:51:59;32.83;;;14.90;;
72924;SDS011;61070;50.794;7.054;2024-01-15T03:52:59;35.80;;;15.98;;
72924;SDS011;61070;50.794;7.054;2024-01-15T03:53:59;32.10;;;14.95;;
72924;SDS011;61070;50.794;7.054;2024-01-15T03:54:59;29.80;;;15.68;;
72924;SDS011;61070;50.794;7.054;2024-01-15T03:56:00;30.65;;;15.05;;
72924;SDS011;61070;50.794;7.054;2024-01-15T03:57:00;31.77;;;14.23;;
72924;SDS011;61070;50.794;7.054;2024-01-15T03:58:00;33.22;;;13.88;;
72924;SDS011;61070;50.794;7.054;2024-01-15T03:59:00;30.40;;;14.55;;
72924;SDS011;61070;50.794;7.054;2024-01-15T04:00:01;33.53;;;14.63;;
72924;SDS011;61070;50.794;7.054;2024-01-15T04:01:01;37.55;;;16.52;;
72924;SDS011;61070;50.794;7.054;2024-01-15T04:02:01;37.45;;;17.33;;
72924;SDS011;61070;50.794;7.054;2024-01-15T04:03:02;39.22;;;16.48;;
72924;SDS011;61070;50.794;7.054;2024-01-15T04:04:02;33.08;;;16.25;;
72924;SDS011;61070;50.794;7.054;2024-01-15T04:05:02;40.20;;;16.45;;
72924;SDS011;61070;50.794;7.054;2024-01-15T04:06:03;34.70;;;15.27;;
72924;SDS011;61070;50.794;7.054;2024-01-15T04:07:04;38.75;;;16.98;;
72924;SDS011;61070;50.794;7.054;2024-01-15T04:08:04;40.53;;;16.90;;
72924;SDS011;61070;50.794;7.054;2024-01-15T04:09:05;36.17;;;16.08;;
72924;SDS011;61070;50.794;7.054;2024-01-15T04:10:05;37.05;;;16.70;;
72924;SDS011;61070;50.794;7.054;2024-01-15T04:11:06;37.55;;;16.40;;
72924;SDS011;61070;50.794;7.054;2024-01-15T04:12:06;36.53;;;16.20;;
72924;SDS011;61070;50.794;7.054;2024-01-15T04:13:06;43.17;;;16.30;;
72924;SDS011;61070;50.794;7.054;2024-01-15T04:14:07;35.00;;;16.10;;
72924;SDS011;61070;50.794;7.054;2024-01-15T04:15:07;32.83;;;14.38;;
72924;SDS011;61070;50.794;7.054;2024-01-15T04:16:07;33.13;;;15.63;;
72924;SDS011;61070;50.794;7.054;2024-01-15T04:17:08;39.40;;;16.55;;
72924;SDS011;61070;50.794;7.054;2024-01-15T04:18:08;37.47;;;17.23;;
72924;SDS011;61070;50.794;7.054;2024-01-15T04:19:08;35.25;;;16.10;;
72924;SDS011;61070;50.794;7.054;2024-01-15T04:20:09;41.33;;;15.75;;
72924;SDS011;61070;50.794;7.054;2024-01-15T04:21:09;41.25;;;16.60;;
72924;SDS011;61070;50.794;7.054;2024-01-15T04:22:10;38.10;;;16.08;;
72924;SDS011;61070;50.794;7.054;2024-01-15T04:23:10;36.78;;;16.13;;
72924;SDS011;61070;50.794;7.054;2024-01-15T04:24:10;35.90;;;17.48;;
72924;SDS011;61070;50.794;7.054;2024-01-15T04:25:11;34.67;;;14.80;;
72924;SDS011;61070;50.794;7.054;2024-01-15T04:26:11;41.63;;;16.42;;
72924;SDS011;61070;50.794;7.054;2024-01-15T04:27:11;33.47;;;16.30;;
72924;SDS011;61070;50.794;7.054;2024-01-15T04:28:12;34.45;;;15.52;;
72924;SDS011;61070;50.794;7.054;2024-01-15T04:29:12;37.15;;;14.98;;
72924;SDS011;61070;50.794;7.054;2024-01-15T04:30:12;33.03;;;14.48;;
72924;SDS011;61070;50.794;7.054;2024-01-15T04:31:22;30.92;;;14.63;;
72924;SDS011;61070;50.794;7.054;2024-01-15T04:32:23;39.08;;;15.90;;
72924;SDS011;61070;50.794;7.054;2024-01-15T04:33:24;34.28;;;14.70;;
72924;SDS011;61070;50.794;7.054;2024-01-15T04:34:24;33.88;;;15.18;;
72924;SDS011;61070;50.794;7.054;2024-01-15T04:35:24;30.33;;;14.40;;
72924;SDS011;61070;50.794;7.054;2024-01-15T04:36:25;33.83;;;14.68;;
72924;SDS011;61070;50.794;7.054;2024-01-15T04:37:25;32.38;;;14.35;;
72924;SDS011;61070;50.794;7.054;2024-01-15T04:38:25;31.73;;;13.23;;
72924;SDS011;61070;50.794;7.054;2024-01-15T04:39:25;31.13;;;13.52;;
72924;SDS011;61070;50.794;7.054;2024-01-15T04:40:26;35.88;;;15.40;;
72924;SDS011;61070;50.794;7.054;2024-01-15T04:41:27;30.25;;;14.38;;
72924;SDS011;61070;50.794;7.054;2024-01-15T04:42:27;35.45;;;14.65;;
72924;SDS011;61070;50.794;7.054;2024-01-15T04:43:28;33.03;;;13.95;;
72924;SDS011;61070;50.794;7.054;2024-01-15T04:44:28;30.67;;;14.65;;
72924;SDS011;61070;50.794;7.054;2024-01-15T04:45:28;37.13;;;14.30;;
72924;SDS011;61070;50.794;7.054;2024-01-15T04:46:29;26.10;;;12.43;;
72924;SDS011;61070;50.794;7.054;2024-01-15T04:47:29;31.52;;;13.95;;
72924;SDS011;61070;50.794;7.054;2024-01-15T04:48:29;31.65;;;14.88;;
72924;SDS011;61070;50.794;7.054;2024-01-15T04:49:29;30.35;;;13.25;;
72924;SDS011;61070;50.794;7.054;2024-01-15T04:50:30;27.63;;;13.50;;
72924;SDS011;61070;50.794;7.054;2024-01-15T04:51:30;29.35;;;13.07;;
72924;SDS011;61070;50.794;7.054;2024-01-15T04:52:30;33.15;;;13.60;;
72924;SDS011;61070;50.794;7.054;2024-01-15T04:53:31;31.85;;;12.68;;
72924;SDS011;61070;50.794;7.054;2024-01-15T04:54:31;29.30;;;12.95;;
72924;SDS011;61070;50.794;7.054;2024-01-15T04:55:31;31.55;;;13.95;;
72924;SDS011;61070;50.794;7.054;2024-01-15T04:56:32;37.72;;;14.05;;
72924;SDS011;61070;50.794;7.054;2024-01-15T04:57:32;27.85;;;13.00;;
72924;SDS011;61070;50.794;7.054;2024-01-15T04:58:32;31.20;;;13.18;;
72924;SDS011;61070;50.794;7.054;2024-01-15T04:59:32;28.38;;;12.93;;
72924;SDS011;61070;50.794;7.054;2024-01-15T05:00:33;31.77;;;13.38;;
72924;SDS011;61070;50.794;7.054;2024-01-15T05:01:33;25.42;;;11.88;;
72924;SDS011;61070;50.794;7.054;2024-01-15T05:02:34;28.35;;;13.10;;
72924;SDS011;61070;50.794;7.054;2024-01-15T05:03:34;30.48;;;12.55;;
72924;SDS011;61070;50.794;7.054;2024-01-15T05:04:34;31.42;;;13.00;;
72924;SDS011;61070;50.794;7.054;2024-01-15T05:05:34;26.05;;;12.82;;
72924;SDS011;61070;50.794;7.054;2024-01-15T05:06:35;26.25;;;11.95;;
72924;SDS011;61070;50.794;7.054;2024-01-15T05:07:35;27.83;;;11.93;;
72924;SDS011;61070;50.794;7.054;2024-01-15T05:08:35;26.80;;;11.40;;
72924;SDS011;61070;50.794;7.054;2024-01-15T05:09:35;27.52;;;12.50;;
72924;SDS011;61070;50.794;7.054;2024-01-15T05:10:36;28.33;;;12.38;;
72924;SDS011;61070;50.794;7.054;2024-01-15T05:11:36;29.42;;;12.85;;
72924;SDS011;61070;50.794;7.054;2024-01-15T05:12:37;22.25;;;10.95;;
72924;SDS011;61070;50.794;7.054;2024-01-15T05:13:37;24.08;;;11.57;;
72924;SDS011;61070;50.794;7.054;2024-01-15T05:14:37;28.30;;;11.43;;
72924;SDS011;61070;50.794;7.054;2024-01-15T05:15:37;26.17;;;11.05;;
72924;SDS011;61070;50.794;7.054;2024-01-15T05:16:38;24.25;;;11.98;;
72924;SDS011;61070;50.794;7.054;2024-01-15T05:17:39;27.20;;;11.30;;
72924;SDS011;61070;50.794;7.054;2024-01-15T05:18:39;24.65;;;12.45;;
72924;SDS011;61070;50.794;7.054;2024-01-15T05:19:39;24.55;;;11.10;;
72924;SDS011;61070;50.794;7.054;2024-01-15T05:20:39;24.70;;;11.48;;
72924;SDS011;61070;50.794;7.054;2024-01-15T05:21:40;26.05;;;12.18;;
72924;SDS011;61070;50.794;7.054;2024-01-15T05:22:40;27.70;;;11.68;;
72924;SDS011;61070;50.794;7.054;2024-01-15T05:23:40;28.70;;;11.80;;
72924;SDS011;61070;50.794;7.054;2024-01-15T05:24:41;25.75;;;12.15;;
72924;SDS011;61070;50.794;7.054;2024-01-15T05:25:41;23.65;;;11.75;;
72924;SDS011;61070;50.794;7.054;2024-01-15T05:26:41;27.98;;;12.07;;
72924;SDS011;61070;50.794;7.054;2024-01-15T05:27:42;29.85;;;12.00;;
72924;SDS011;61070;50.794;7.054;2024-01-15T05:28:42;28.95;;;12.15;;
72924;SDS011;61070;50.794;7.054;2024-01-15T05:29:43;30.95;;;11.68;;
72924;SDS011;61070;50.794;7.054;2024-01-15T05:30:43;35.90;;;13.35;;
72924;SDS011;61070;50.794;7.054;2024-01-15T05:31:44;30.20;;;12.80;;
72924;SDS011;61070;50.794;7.054;2024-01-15T05:32:44;24.00;;;11.57;;
72924;SDS011;61070;50.794;7.054;2024-01-15T05:33:44;28.98;;;13.00;;
72924;SDS011;61070;50.794;7.054;2024-01-15T05:34:45;33.80;;;13.63;;
72924;SDS011;61070;50.794;7.054;2024-01-15T05:35:45;30.05;;;13.68;;
72924;SDS011;61070;50.794;7.054;2024-01-15T05:36:45;30.17;;;14.15;;
72924;SDS011;61070;50.794;7.054;2024-01-15T05:37:47;32.10;;;13.43;;
72924;SDS011;61070;50.794;7.054;2024-01-15T05:38:48;34.42;;;14.23;;
72924;SDS011;61070;50.794;7.054;2024-01-15T05:39:49;33.03;;;14.07;;
72924;SDS011;61070;50.794;7.054;2024-01-15T05:40:50;30.60;;;14.00;;
72924;SDS011;61070;50.794;7.054;2024-01-15T05:41:50;30.10;;;12.98;;
72924;SDS011;61070;50.794;7.054;2024-01-15T05:42:50;30.95;;;13.88;;
72924;SDS011;61070;50.794;7.054;2024-01-15T05:43:50;31.95;;;14.52;;
72924;SDS011;61070;50.794;7.054;2024-01-15T05:44:51;30.75;;;13.60;;
72924;SDS011;61070;50.794;7.054;2024-01-15T05:45:51;31.23;;;12.88;;
72924;SDS011;61070;50.794;7.054;2024-01-15T05:46:51;27.73;;;13.55;;
72924;SDS011;61070;50.794;7.054;2024-01-15T05:47:51;30.80;;;13.88;;
72924;SDS011;61070;50.794;7.054;2024-01-15T05:48:52;33.22;;;13.35;;
72924;SDS011;61070;50.794;7.054;2024-01-15T05:49:52;32.72;;;13.98;;
72924;SDS011;61070;50.794;7.054;2024-01-15T05:50:52;31.33;;;13.98;;
72924;SDS011;61070;50.794;7.054;2024-01-15T05:51:52;30.77;;;13.60;;
72924;SDS011;61070;50.794;7.054;2024-01-15T05:52:53;32.45;;;14.30;;
72924;SDS011;61070;50.794;7.054;2024-01-15T05:53:53;31.83;;;14.32;;